Nearby METAR Reports

 

CYOW - Ottawa Intl, Ontario, Canada
Distance from station: NNW 27km
Updated: 01/19/2021 12:42pm
Light snow, Mostly cloudy
Light snow, Mostly cloudy
 Wind from ENE
Wind: ENE 9 km/h
Temperature: -8°C
Wind Chill: -12°C
Dew Point: -12°C
Humidity: 73%
Barometer: 1013.2 hPa
Summary: Light Snow
Clouds: Mostly cloudy
Visibility: 16 km
Cloud details: Mostly cloudy 640 m
Mostly cloudy 2134 m
2021/01/19 17:42 CYOW 191742Z 06005KT 040V100 10SM -SN BKN021 BKN070 M08/M12 A2992 RMK SC6AC1 SLP141
KMSS - Massena, New York, USA
Distance from station: ESE 54km
Updated: 01/19/2021 12:53pm
Mostly cloudy
Mostly cloudy
 Wind from calm
Wind: Calm
Temperature: -7°C
Dew Point: -12°C
Humidity: 68%
Barometer: 1014.2 hPa
Clouds: Mostly cloudy
Visibility: 16 km
Cloud details: Few Clouds 1829 m
Mostly cloudy 2438 m
Mostly cloudy 3048 m
2021/01/19 17:53 KMSS 191753Z AUTO 00000KT 10SM FEW060 BKN080 BKN100 M07/M12 A2995 RMK AO2 SLP150 T10671117 11061 21172 58023
KOGS - Ogdensburg Intl, New York, USA
Distance from station: S 48km
Updated: 01/19/2021 12:55pm
Light snow, Clear
Light snow, Clear
 Wind from calm
Wind: Calm
Temperature: -5°C
Dew Point: -9°C
Humidity: 74%
Barometer: 1012.5 hPa
Summary: Light Snow
Clouds: Clear
Visibility: 14 km
2021/01/19 17:55 KOGS 191755Z AUTO 00000KT 9SM -SN CLR M05/M09 A2990 RMK AO2
 
CXKE - Kemptville, Ontario, Canada
Distance from station: SW 15km
Updated: 01/19/2021 12:00pm

 Wind from E
Wind: E 2 km/h
Temperature: -6°C
Dew Point: -12°C
Humidity: 63%
2021/01/19 17:00 CXKE 191700Z AUTO 08001KT M06/M12 RMK AO1 SOG 19 8015 SLP142 T10631117 50003